< < Back
Terminal Aerodrome Forecast


Current Version              Previous Versions:   1  2  3  4  5  6  7  8  9  

Terminal Aerodrome Forecast

156
FTUS42 KGSP 041724
TAFCLT
TAF
KCLT 041724Z 0418/0518 24013G22KT P6SM VCSH SCT050 BKN100
      TEMPO 0419/0423 -SHRA BKN050
     FM050100 24005KT P6SM FEW050 BKN100
     FM050900 23003KT P6SM FEW020 BKN080
     FM051500 22007KT P6SM FEW050 BKN100=

Latest METAR

103
SAUS70 KWBC 041900 RRQ
MTRCLT
METAR KCLT 041852Z COR 25008KT 10SM FEW050 BKN110 BKN250 27/18 A3002 RMK
AO2 RAE1755 SLP156 P0000 T02670183 $


USA.gov is the U.S. government's official web portal to all federal, state and local government web resources and services.